Roswell, New Mexico
Current Conditions -  °F | °C
As of 1:51 PM on Saturday 25 Oct 2014 (Local Time) from KROW Reporting Station
Clear Clear  
Wind Chill: 80°   Ceiling: Unl
Heat Index: 80°   Visibility: 10mi
Dew Point: 51°   Wind: 9mph
Humidity: 36%   Direction: 160°SSE
Pressure: 30.14"   Gusts: NA
Location:  33.39°N, 104.52°W
Report Text: KROW 251951Z 16008KT 10SM CLR 27/11 A3014 RMK AO2 SLP153 T02670106
Loading
Personal Weather Stations






























Interactive Weather Map New forecast layout! Learn more

10-Day Weather Forecast

Advertisements
Track Severe Weather on mobile